createdAt,value
2023-12-15T00:02:30.903Z,1.40
2023-12-15T00:05:03.063Z,1.37
2023-12-15T00:07:35.483Z,1.32
2023-12-15T00:10:09.213Z,1.30
2023-12-15T00:12:41.240Z,1.30
2023-12-15T00:15:14.151Z,1.29
2023-12-15T00:17:46.448Z,1.28
2023-12-15T00:20:22.575Z,1.27
2023-12-15T00:22:56.275Z,1.24
2023-12-15T00:25:28.450Z,1.21
2023-12-15T00:28:01.595Z,1.20
2023-12-15T00:30:33.889Z,1.18
2023-12-15T00:33:06.040Z,1.16
2023-12-15T00:35:38.111Z,1.18
2023-12-15T00:38:09.962Z,1.17
2023-12-15T00:40:43.384Z,1.19
2023-12-15T00:43:15.705Z,1.16
2023-12-15T00:45:47.926Z,1.20
2023-12-15T00:48:20.316Z,1.18
2023-12-15T00:50:52.540Z,1.18
2023-12-15T00:53:24.479Z,1.15
2023-12-15T00:55:56.697Z,1.17
2023-12-15T00:58:28.816Z,1.17
2023-12-15T01:01:00.933Z,1.16
2023-12-15T01:03:35.052Z,1.15
2023-12-15T01:06:07.800Z,1.12
2023-12-15T01:08:39.966Z,1.12
2023-12-15T01:11:12.016Z,1.12
2023-12-15T01:13:44.693Z,1.10
2023-12-15T01:16:16.993Z,1.10
2023-12-15T01:18:49.092Z,1.08
2023-12-15T01:21:21.178Z,1.02
2023-12-15T01:24:00.458Z,0.99
2023-12-15T01:26:34.392Z,0.97
2023-12-15T01:29:06.805Z,1.01
2023-12-15T01:31:38.910Z,1.00
2023-12-15T01:34:11.103Z,0.98
2023-12-15T01:36:43.908Z,0.94
2023-12-15T01:39:15.776Z,0.89
2023-12-15T01:41:47.757Z,0.88
2023-12-15T01:44:19.690Z,0.86
2023-12-15T01:46:52.716Z,0.82
2023-12-15T01:49:24.933Z,0.82
2023-12-15T01:51:57.355Z,0.82
2023-12-15T01:54:29.590Z,0.84
2023-12-15T01:57:01.546Z,0.86
2023-12-15T01:59:45.480Z,0.90
2023-12-15T02:02:17.817Z,0.90
2023-12-15T02:04:51.395Z,0.90
2023-12-15T02:07:23.612Z,0.91
2023-12-15T02:09:55.968Z,0.92
2023-12-15T02:12:28.393Z,0.90
2023-12-15T02:15:00.714Z,0.87
2023-12-15T02:17:32.769Z,0.86
2023-12-15T02:20:04.807Z,0.86
2023-12-15T02:22:36.696Z,0.83
2023-12-15T02:25:09.573Z,0.76
2023-12-15T02:27:42.643Z,0.71
2023-12-15T02:30:14.770Z,0.69
2023-12-15T02:32:46.885Z,0.66
2023-12-15T02:35:20.748Z,0.61
2023-12-15T02:37:51.086Z,0.58
2023-12-15T02:40:23.153Z,0.55
2023-12-15T02:42:55.276Z,0.55
2023-12-15T02:45:27.731Z,0.54
2023-12-15T02:47:59.981Z,0.52
2023-12-15T02:50:32.217Z,0.54
2023-12-15T02:53:04.486Z,0.53
2023-12-15T02:55:36.556Z,0.51
2023-12-15T02:58:08.983Z,0.50
2023-12-15T03:00:41.106Z,0.49
2023-12-15T03:03:13.247Z,0.46
2023-12-15T03:05:45.562Z,0.42
2023-12-15T03:08:17.829Z,0.42
2023-12-15T03:10:49.967Z,0.38
2023-12-15T03:13:22.070Z,0.44
2023-12-15T03:15:54.111Z,0.40
2023-12-15T03:18:26.156Z,0.50
2023-12-15T03:20:58.221Z,0.48
2023-12-15T03:23:31.964Z,0.54
2023-12-15T03:26:04.233Z,0.51
2023-12-15T03:28:36.578Z,0.51
2023-12-15T03:31:09.315Z,0.50
2023-12-15T03:33:41.328Z,0.51
2023-12-15T03:36:13.796Z,0.41
2023-12-15T03:38:46.001Z,0.40
2023-12-15T03:41:18.283Z,0.38
2023-12-15T03:43:52.327Z,0.38
2023-12-15T03:46:24.306Z,0.40
2023-12-15T03:48:56.454Z,0.36
2023-12-15T03:51:28.411Z,0.34
2023-12-15T03:54:01.074Z,0.34
2023-12-15T03:56:33.272Z,0.34
2023-12-15T03:59:05.304Z,0.34
2023-12-15T04:01:37.446Z,0.33
2023-12-15T04:04:09.584Z,0.35
2023-12-15T04:06:41.737Z,0.30
2023-12-15T04:09:14.283Z,0.33
2023-12-15T04:11:47.860Z,0.36
2023-12-15T04:14:20.818Z,0.33
2023-12-15T04:16:52.772Z,0.31
2023-12-15T04:19:24.967Z,0.38
2023-12-15T04:21:57.211Z,0.36
2023-12-15T04:24:29.288Z,0.38
2023-12-15T04:27:01.547Z,0.38
2023-12-15T04:29:34.055Z,0.38
2023-12-15T04:32:06.505Z,0.36
2023-12-15T04:34:38.976Z,0.35
2023-12-15T04:37:13.218Z,0.34
2023-12-15T04:39:48.188Z,0.31
2023-12-15T04:42:20.039Z,0.29
2023-12-15T04:44:51.950Z,0.26
2023-12-15T04:47:23.861Z,0.21
2023-12-15T04:49:56.274Z,0.20
2023-12-15T04:52:28.249Z,0.20
2023-12-15T04:55:00.405Z,0.14
2023-12-15T04:57:32.444Z,0.12
2023-12-15T05:00:05.535Z,0.09
2023-12-15T05:02:37.664Z,0.12
2023-12-15T05:05:10.690Z,0.12
2023-12-15T05:07:43.200Z,0.11
2023-12-15T05:10:15.170Z,0.05
2023-12-15T05:12:47.359Z,0.06
2023-12-15T05:15:19.393Z,0.03
2023-12-15T05:17:52.605Z,0.05
2023-12-15T05:20:24.955Z,0.02
2023-12-15T05:22:57.642Z,-0.03
2023-12-15T05:25:29.832Z,0.04
2023-12-15T05:28:02.396Z,0.05
2023-12-15T05:30:34.428Z,0.06
2023-12-15T05:33:07.835Z,0.02
2023-12-15T05:35:40.448Z,-0.02
2023-12-15T05:38:12.555Z,0.02
2023-12-15T05:40:44.746Z,0.02
2023-12-15T05:43:17.537Z,0.01
2023-12-15T05:45:51.275Z,0.05
2023-12-15T05:48:24.079Z,0.04
2023-12-15T05:50:56.085Z,0.04
2023-12-15T05:53:28.121Z,0.05
2023-12-15T05:56:00.982Z,0.03
2023-12-15T05:58:33.416Z,0.02
2023-12-15T06:01:05.727Z,0.05
2023-12-15T06:03:37.967Z,0.04
2023-12-15T06:06:14.545Z,0.05
2023-12-15T06:08:46.855Z,0.06
2023-12-15T06:11:19.216Z,0.08
2023-12-15T06:13:51.356Z,0.10
2023-12-15T06:16:24.590Z,0.12
2023-12-15T06:18:56.783Z,0.12
2023-12-15T06:21:29.636Z,0.13
2023-12-15T06:24:01.492Z,0.15
2023-12-15T06:26:33.646Z,0.12
2023-12-15T06:29:06.160Z,0.13
2023-12-15T06:31:38.487Z,0.13
2023-12-15T06:34:10.592Z,0.15
2023-12-15T06:36:43.653Z,0.14
2023-12-15T06:39:16.678Z,0.19
2023-12-15T06:41:49.405Z,0.21
2023-12-15T06:44:21.903Z,0.22
2023-12-15T06:46:53.887Z,0.24
2023-12-15T06:49:32.148Z,0.26
2023-12-15T06:52:05.250Z,0.25
2023-12-15T06:54:40.137Z,0.27
2023-12-15T06:57:12.512Z,0.27
2023-12-15T06:59:44.687Z,0.28
2023-12-15T07:02:16.691Z,0.30
2023-12-15T07:04:52.145Z,0.31
2023-12-15T07:07:24.325Z,0.34
2023-12-15T07:09:56.656Z,0.36
2023-12-15T07:12:28.607Z,0.30
2023-12-15T07:15:00.893Z,0.32
2023-12-15T07:17:32.980Z,0.32
2023-12-15T07:20:05.705Z,0.24
2023-12-15T07:22:37.735Z,0.27
2023-12-15T07:25:10.931Z,0.30
2023-12-15T07:27:43.561Z,0.22
2023-12-15T07:30:16.702Z,0.25
2023-12-15T07:32:49.085Z,0.27
2023-12-15T07:35:29.493Z,0.24
2023-12-15T07:38:04.848Z,0.27
2023-12-15T07:40:37.151Z,0.24
2023-12-15T07:43:09.511Z,0.25
2023-12-15T07:45:41.699Z,0.27
2023-12-15T07:48:14.925Z,0.26
2023-12-15T07:50:49.819Z,0.30
2023-12-15T07:53:22.546Z,0.32
2023-12-15T07:55:55.531Z,0.32
2023-12-15T07:58:28.036Z,0.35
2023-12-15T08:01:00.712Z,0.43
2023-12-15T08:03:33.027Z,0.44
2023-12-15T08:06:06.159Z,0.47
2023-12-15T08:08:40.567Z,0.50
2023-12-15T08:11:13.212Z,0.56
2023-12-15T08:13:45.568Z,0.60
2023-12-15T08:16:17.747Z,0.63
2023-12-15T08:18:49.836Z,0.64
2023-12-15T08:21:21.845Z,0.69
2023-12-15T08:26:55.304Z,0.74
2023-12-15T08:29:28.116Z,0.72
2023-12-15T08:32:00.275Z,0.75
2023-12-15T08:34:33.633Z,0.76
2023-12-15T08:37:06.169Z,0.80
2023-12-15T08:39:38.299Z,0.85
2023-12-15T08:42:10.498Z,0.93
2023-12-15T08:44:45.588Z,0.95
2023-12-15T08:47:17.886Z,0.97
2023-12-15T08:49:50.175Z,0.95
2023-12-15T08:52:22.459Z,0.93
2023-12-15T08:54:54.599Z,0.97
2023-12-15T08:57:27.278Z,0.99
2023-12-15T09:00:00.387Z,0.99
2023-12-15T09:02:33.195Z,1.05
2023-12-15T09:05:13.955Z,1.09
2023-12-15T09:07:57.545Z,1.12
2023-12-15T09:10:34.994Z,1.16
2023-12-15T09:13:08.344Z,1.14
2023-12-15T09:15:40.660Z,1.13
2023-12-15T09:18:13.508Z,1.05
2023-12-15T09:20:46.812Z,1.03
2023-12-15T09:23:21.237Z,1.04
2023-12-15T09:25:55.053Z,1.05
2023-12-15T09:28:27.698Z,1.04
2023-12-15T09:31:00.442Z,1.13
2023-12-15T09:33:33.062Z,1.17
2023-12-15T09:36:06.393Z,1.20
2023-12-15T09:38:38.650Z,1.27
2023-12-15T09:41:11.480Z,1.29
2023-12-15T09:43:43.880Z,1.31
2023-12-15T09:46:16.418Z,1.29
2023-12-15T09:48:49.624Z,1.28
2023-12-15T09:51:25.827Z,1.28
2023-12-15T09:53:58.168Z,1.31
2023-12-15T09:56:30.785Z,1.29
2023-12-15T09:59:02.955Z,1.27
2023-12-15T10:01:35.348Z,1.29
2023-12-15T10:04:07.685Z,1.37
2023-12-15T10:06:41.350Z,1.39
2023-12-15T10:09:14.821Z,1.44
2023-12-15T10:11:48.267Z,1.43
2023-12-15T10:14:21.180Z,1.53
2023-12-15T10:16:53.826Z,1.61
2023-12-15T10:19:28.578Z,1.67
2023-12-15T10:22:00.701Z,1.67
2023-12-15T10:24:35.647Z,1.73
2023-12-15T10:27:10.244Z,1.80
2023-12-15T10:29:42.964Z,1.83
2023-12-15T10:32:15.757Z,1.92
2023-12-15T10:34:48.066Z,1.93
2023-12-15T10:37:21.092Z,2.02
2023-12-15T10:39:53.246Z,2.11
2023-12-15T10:42:26.794Z,2.12
2023-12-15T10:45:00.384Z,2.10
2023-12-15T10:47:34.682Z,2.07
2023-12-15T10:50:09.139Z,2.04
2023-12-15T10:52:42.241Z,1.96
2023-12-15T10:55:16.622Z,1.90
2023-12-15T10:57:50.085Z,1.84
2023-12-15T11:00:22.793Z,1.85
2023-12-15T11:02:56.764Z,1.84
2023-12-15T11:05:35.837Z,1.82
2023-12-15T11:08:11.575Z,1.80
2023-12-15T11:10:43.663Z,1.88
2023-12-15T11:13:48.596Z,1.87
2023-12-15T11:16:24.870Z,1.92
2023-12-15T11:18:59.402Z,1.91
2023-12-15T11:21:32.391Z,1.90
2023-12-15T11:24:06.597Z,1.85
2023-12-15T11:26:40.083Z,1.81
2023-12-15T11:29:14.672Z,1.73
2023-12-15T11:31:47.281Z,1.69
2023-12-15T11:34:43.753Z,1.62
2023-12-15T11:37:16.041Z,1.55
2023-12-15T11:39:51.690Z,1.50
2023-12-15T11:42:24.484Z,1.48
2023-12-15T11:44:56.653Z,1.42
2023-12-15T11:47:28.897Z,1.40
2023-12-15T11:50:05.571Z,1.37
2023-12-15T11:52:41.676Z,1.35
2023-12-15T11:55:17.045Z,1.33
2023-12-15T11:57:49.275Z,1.34
2023-12-15T12:00:22.435Z,1.30
2023-12-15T12:02:55.026Z,1.32
2023-12-15T12:05:27.252Z,1.34
2023-12-15T12:08:00.384Z,1.39
2023-12-15T12:10:35.837Z,1.42
2023-12-15T12:13:12.548Z,1.45
2023-12-15T12:15:55.226Z,1.48
2023-12-15T12:18:28.525Z,1.50
2023-12-15T12:21:04.304Z,1.50
2023-12-15T12:23:43.380Z,1.54
2023-12-15T12:26:18.240Z,1.59
2023-12-15T12:28:52.662Z,1.66
2023-12-15T12:31:25.819Z,1.70
2023-12-15T12:33:58.390Z,1.69
2023-12-15T12:36:30.816Z,1.71
2023-12-15T12:39:04.324Z,1.69
2023-12-15T12:41:36.818Z,1.68
2023-12-15T12:44:09.964Z,1.66
2023-12-15T12:46:42.507Z,1.62
2023-12-15T12:49:15.431Z,1.62
2023-12-15T12:51:52.114Z,1.62
2023-12-15T12:54:24.047Z,1.64
2023-12-15T12:57:00.484Z,1.65
2023-12-15T12:59:33.253Z,1.66
2023-12-15T13:02:11.800Z,1.66
2023-12-15T13:04:51.445Z,1.65
2023-12-15T13:07:23.633Z,1.65
2023-12-15T13:09:55.630Z,1.64
2023-12-15T13:12:29.424Z,1.63
2023-12-15T13:15:01.374Z,1.60
2023-12-15T13:17:33.784Z,1.62
2023-12-15T13:20:06.481Z,1.61
2023-12-15T13:22:47.278Z,1.58
2023-12-15T13:25:20.974Z,1.62
2023-12-15T13:27:53.629Z,1.63
2023-12-15T13:30:28.423Z,1.65
2023-12-15T13:33:00.778Z,1.63
2023-12-15T13:35:35.687Z,1.55
2023-12-15T13:38:08.159Z,1.49
2023-12-15T13:40:40.316Z,1.50
2023-12-15T13:43:12.618Z,1.52
2023-12-15T13:45:50.656Z,1.51
2023-12-15T13:48:26.424Z,1.49
2023-12-15T13:50:58.841Z,1.51
2023-12-15T13:53:31.356Z,1.50
2023-12-15T13:56:03.750Z,1.50
2023-12-15T13:58:36.628Z,1.45
2023-12-15T14:01:08.916Z,1.43
2023-12-15T14:03:41.148Z,1.42
2023-12-15T14:06:13.804Z,1.44
2023-12-15T14:08:47.805Z,1.51
2023-12-15T14:11:20.030Z,1.54
2023-12-15T14:13:52.474Z,1.54
2023-12-15T14:16:37.696Z,1.55
2023-12-15T14:19:18.712Z,1.53
2023-12-15T14:21:52.455Z,1.55
2023-12-15T14:24:25.135Z,1.54
2023-12-15T14:26:58.548Z,1.54
2023-12-15T14:29:32.104Z,1.55
2023-12-15T14:32:05.359Z,1.56
2023-12-15T14:34:37.666Z,1.54
2023-12-15T14:37:09.819Z,1.51
2023-12-15T14:39:41.908Z,1.51
2023-12-15T14:42:16.764Z,1.50
2023-12-15T14:44:49.305Z,1.52
2023-12-15T14:47:24.253Z,1.43
2023-12-15T14:49:56.233Z,1.41
2023-12-15T14:52:29.968Z,1.40
2023-12-15T14:55:03.361Z,1.42
2023-12-15T14:57:37.336Z,1.43
2023-12-15T15:00:11.306Z,1.41
2023-12-15T15:02:44.253Z,1.40
2023-12-15T15:05:17.079Z,1.36
2023-12-15T15:07:49.136Z,1.32
2023-12-15T15:10:21.346Z,1.30
2023-12-15T15:12:53.660Z,1.28
2023-12-15T15:15:26.076Z,1.15
2023-12-15T15:17:58.306Z,1.22
2023-12-15T15:20:30.781Z,1.23
2023-12-15T15:23:02.932Z,1.07
2023-12-15T15:25:35.869Z,0.98
2023-12-15T15:28:09.768Z,0.94
2023-12-15T15:30:44.033Z,0.93
2023-12-15T15:33:16.449Z,0.89
2023-12-15T15:35:48.738Z,0.88
2023-12-15T15:38:20.828Z,0.86
2023-12-15T15:40:53.486Z,0.85
2023-12-15T15:43:26.014Z,0.83
2023-12-15T15:45:58.461Z,0.81
2023-12-15T15:48:32.079Z,0.76
2023-12-15T15:51:04.329Z,0.71
2023-12-15T15:53:36.688Z,0.69
2023-12-15T15:56:12.435Z,0.66
2023-12-15T15:58:44.624Z,0.63
2023-12-15T16:01:32.799Z,0.61
2023-12-15T16:04:13.216Z,0.58
2023-12-15T16:06:45.487Z,0.60
2023-12-15T16:09:18.296Z,0.59
2023-12-15T16:11:50.807Z,0.56
2023-12-15T16:14:22.811Z,0.52
2023-12-15T16:16:56.197Z,0.50
2023-12-15T16:19:28.532Z,0.51
2023-12-15T16:22:01.613Z,0.51
2023-12-15T16:24:33.757Z,0.49
2023-12-15T16:27:06.240Z,0.48
2023-12-15T16:29:38.494Z,0.48
2023-12-15T16:32:11.321Z,0.46
2023-12-15T16:34:44.906Z,0.46
2023-12-15T16:37:17.124Z,0.44
2023-12-15T16:39:50.543Z,0.44
2023-12-15T16:42:22.748Z,0.43
2023-12-15T16:44:54.996Z,0.43
2023-12-15T16:47:27.250Z,0.43
2023-12-15T16:49:59.490Z,0.42
2023-12-15T16:52:31.659Z,0.40
2023-12-15T16:55:05.065Z,0.37
2023-12-15T16:57:38.063Z,0.40
2023-12-15T17:00:12.918Z,0.39
2023-12-15T17:02:44.967Z,0.39
2023-12-15T17:05:17.115Z,0.41
2023-12-15T17:07:49.608Z,0.39
2023-12-15T17:10:21.891Z,0.38
2023-12-15T17:12:54.458Z,0.39
2023-12-15T17:15:26.601Z,0.37
2023-12-15T17:18:05.398Z,0.35
2023-12-15T17:20:40.726Z,0.36
2023-12-15T17:23:12.778Z,0.34
2023-12-15T17:25:46.404Z,0.35
2023-12-15T17:28:18.525Z,0.34
2023-12-15T17:30:50.591Z,0.29
2023-12-15T17:33:22.664Z,0.26
2023-12-15T17:35:54.707Z,0.23
2023-12-15T17:38:26.728Z,0.22
2023-12-15T17:40:59.194Z,0.17
2023-12-15T17:43:31.230Z,0.17
2023-12-15T17:46:03.454Z,0.19
2023-12-15T17:48:37.262Z,0.20
2023-12-15T17:51:09.976Z,0.17
2023-12-15T17:53:43.647Z,0.17
2023-12-15T17:56:13.968Z,0.19
2023-12-15T17:58:46.874Z,0.14
2023-12-15T18:01:19.026Z,0.15
2023-12-15T18:03:51.521Z,0.16
2023-12-15T18:06:23.621Z,0.19
2023-12-15T18:08:55.786Z,0.21
2023-12-15T18:11:30.560Z,0.22
2023-12-15T18:14:03.303Z,0.21
2023-12-15T18:16:36.186Z,0.20
2023-12-15T18:19:08.426Z,0.20
2023-12-15T18:21:44.955Z,0.23
2023-12-15T18:24:17.420Z,0.24
2023-12-15T18:26:49.627Z,0.21
2023-12-15T18:29:26.441Z,0.23
2023-12-15T18:31:58.836Z,0.23
2023-12-15T18:34:31.986Z,0.24
2023-12-15T18:37:06.153Z,0.21
2023-12-15T18:39:39.625Z,0.18
2023-12-15T18:42:12.037Z,0.19
2023-12-15T18:44:47.314Z,0.19
2023-12-15T18:47:20.568Z,0.18
2023-12-15T18:49:55.155Z,0.19
2023-12-15T18:52:30.381Z,0.16
2023-12-15T18:55:06.738Z,0.14
2023-12-15T18:57:46.738Z,0.12
2023-12-15T19:00:24.759Z,0.12
2023-12-15T19:02:56.958Z,0.14
2023-12-15T19:05:29.684Z,0.14
2023-12-15T19:08:03.189Z,0.16
2023-12-15T19:10:35.204Z,0.16
2023-12-15T19:13:07.661Z,0.18
2023-12-15T19:15:40.008Z,0.16
2023-12-15T19:18:12.450Z,0.16
2023-12-15T19:20:51.164Z,0.16
2023-12-15T19:23:25.053Z,0.18
2023-12-15T19:25:59.539Z,0.20
2023-12-15T19:28:34.167Z,0.21
2023-12-15T19:31:06.915Z,0.22
2023-12-15T19:33:41.008Z,0.24
2023-12-15T19:36:14.839Z,0.25
2023-12-15T19:38:46.729Z,0.27
2023-12-15T19:41:24.377Z,0.24
2023-12-15T19:43:56.887Z,0.27
2023-12-15T19:46:33.483Z,0.28
2023-12-15T19:49:05.855Z,0.37
2023-12-15T19:51:38.828Z,0.37
2023-12-15T19:54:19.689Z,0.38
2023-12-15T19:56:53.842Z,0.41
2023-12-15T19:59:27.409Z,0.41
2023-12-15T20:02:04.827Z,0.43
2023-12-15T20:04:38.000Z,0.42
2023-12-15T20:07:10.387Z,0.38
2023-12-15T20:09:43.433Z,0.44
2023-12-15T20:12:16.429Z,0.46
2023-12-15T20:14:48.730Z,0.47
2023-12-15T20:17:24.187Z,0.47
2023-12-15T20:19:57.407Z,0.46
2023-12-15T20:22:31.285Z,0.47
2023-12-15T20:25:08.104Z,0.44
2023-12-15T20:27:44.360Z,0.48
2023-12-15T20:30:18.565Z,0.49
2023-12-15T20:32:51.142Z,0.49
2023-12-15T20:35:23.873Z,0.48
2023-12-15T20:37:57.018Z,0.52
2023-12-15T20:40:29.914Z,0.52
2023-12-15T20:43:02.090Z,0.55
2023-12-15T20:45:34.217Z,0.56
2023-12-15T20:48:06.578Z,0.58
2023-12-15T20:50:39.700Z,0.59
2023-12-15T20:53:13.657Z,0.60
2023-12-15T20:55:46.296Z,0.61
2023-12-15T20:58:18.731Z,0.63
2023-12-15T21:00:51.191Z,0.61
2023-12-15T21:03:24.601Z,0.61
2023-12-15T21:05:56.736Z,0.65
2023-12-15T21:08:29.684Z,0.63
2023-12-15T21:11:01.733Z,0.61
2023-12-15T21:13:33.809Z,0.65
2023-12-15T21:16:07.698Z,0.65
2023-12-15T21:18:40.457Z,0.69
2023-12-15T21:21:12.612Z,0.73
2023-12-15T21:23:44.559Z,0.73
2023-12-15T21:26:17.443Z,0.75
2023-12-15T21:28:49.586Z,0.73
2023-12-15T21:31:22.052Z,0.73
2023-12-15T21:33:54.449Z,0.73
2023-12-15T21:36:26.708Z,0.76
2023-12-15T21:38:58.773Z,0.73
2023-12-15T21:41:41.676Z,0.74
2023-12-15T21:44:14.096Z,0.74
2023-12-15T21:46:47.166Z,0.76
2023-12-15T21:49:20.382Z,0.79
2023-12-15T21:51:52.843Z,0.79
2023-12-15T21:54:25.092Z,0.78
2023-12-15T21:56:57.214Z,0.79
2023-12-15T21:59:29.837Z,0.79
2023-12-15T22:02:02.078Z,0.78
2023-12-15T22:04:34.377Z,0.80
2023-12-15T22:07:07.927Z,0.81
2023-12-15T22:09:40.656Z,0.75
2023-12-15T22:12:16.547Z,0.75
2023-12-15T22:14:49.406Z,0.77
2023-12-15T22:17:21.481Z,0.78
2023-12-15T22:19:53.877Z,0.78
2023-12-15T22:22:26.116Z,0.77
2023-12-15T22:24:58.379Z,0.75
2023-12-15T22:27:30.395Z,0.76
2023-12-15T22:30:04.644Z,0.75
2023-12-15T22:32:36.811Z,0.83
2023-12-15T22:35:09.859Z,0.80
2023-12-15T22:37:42.197Z,0.76
2023-12-15T22:40:15.370Z,0.76
2023-12-15T22:42:47.917Z,0.74
2023-12-15T22:45:20.637Z,0.72
2023-12-15T22:47:52.890Z,0.73
2023-12-15T22:50:25.320Z,0.77
2023-12-15T22:52:57.385Z,0.77
2023-12-15T22:55:30.290Z,0.79
2023-12-15T22:58:02.376Z,0.81
2023-12-15T23:00:36.488Z,0.79
2023-12-15T23:03:09.347Z,0.80
2023-12-15T23:05:41.561Z,0.77
2023-12-15T23:08:13.586Z,0.76
2023-12-15T23:10:45.835Z,0.78
2023-12-15T23:13:17.811Z,0.77
2023-12-15T23:15:50.410Z,0.78
2023-12-15T23:18:22.547Z,0.79
2023-12-15T23:20:54.698Z,0.77
2023-12-15T23:23:26.778Z,0.77
2023-12-15T23:25:58.981Z,0.78
2023-12-15T23:28:31.087Z,0.77
2023-12-15T23:31:04.006Z,0.77
2023-12-15T23:33:36.826Z,0.76
2023-12-15T23:36:16.467Z,0.73
2023-12-15T23:38:48.490Z,0.71
2023-12-15T23:41:20.606Z,0.68
2023-12-15T23:43:52.632Z,0.69
2023-12-15T23:46:24.776Z,0.67
2023-12-15T23:48:57.413Z,0.67
2023-12-15T23:51:29.474Z,0.65
2023-12-15T23:54:02.120Z,0.65
2023-12-15T23:56:34.228Z,0.69
2023-12-15T23:59:09.341Z,0.64
